sensor_id;sensor_type;location;lat;lon;timestamp;pressure;altitude;pressure_sealevel;temperature;humidity
50550;BME280;36505;52.512;13.460;2023-12-07T00:01:04;101202.19;;;2.83;100.00
50550;BME280;36505;52.512;13.460;2023-12-07T00:03:30;101216.56;;;2.83;100.00
50550;BME280;36505;52.512;13.460;2023-12-07T00:05:55;101212.00;;;2.84;100.00
50550;BME280;36505;52.512;13.460;2023-12-07T00:08:21;101203.03;;;2.83;100.00
50550;BME280;36505;52.512;13.460;2023-12-07T00:10:46;101207.59;;;2.83;100.00
50550;BME280;36505;52.512;13.460;2023-12-07T00:13:13;101216.56;;;2.83;100.00
50550;BME280;36505;52.512;13.460;2023-12-07T00:15:38;101213.84;;;2.83;100.00
50550;BME280;36505;52.512;13.460;2023-12-07T00:18:03;101213.69;;;2.85;100.00
50550;BME280;36505;52.512;13.460;2023-12-07T00:20:29;101205.56;;;2.85;100.00
50550;BME280;36505;52.512;13.460;2023-12-07T00:22:55;101206.41;;;2.85;100.00
50550;BME280;36505;52.512;13.460;2023-12-07T00:25:21;101215.38;;;2.86;100.00
50550;BME280;36505;52.512;13.460;2023-12-07T00:27:47;101212.47;;;2.87;100.00
50550;BME280;36505;52.512;13.460;2023-12-07T00:30:12;101212.66;;;2.86;100.00
50550;BME280;36505;52.512;13.460;2023-12-07T00:32:38;101209.13;;;2.85;100.00
50550;BME280;36505;52.512;13.460;2023-12-07T00:35:03;101217.22;;;2.85;100.00
50550;BME280;36505;52.512;13.460;2023-12-07T00:37:29;101196.69;;;2.76;100.00
50550;BME280;36505;52.512;13.460;2023-12-07T00:39:54;101214.69;;;2.84;100.00
50550;BME280;36505;52.512;13.460;2023-12-07T00:42:20;101217.41;;;2.84;100.00
50550;BME280;36505;52.512;13.460;2023-12-07T00:44:45;101223.84;;;2.83;99.87
50550;BME280;36505;52.512;13.460;2023-12-07T00:47:10;101230.25;;;2.82;100.00
50550;BME280;36505;52.512;13.460;2023-12-07T00:49:39;101223.00;;;2.82;100.00
50550;BME280;36505;52.512;13.460;2023-12-07T00:52:06;101224.00;;;2.81;100.00
50550;BME280;36505;52.512;13.460;2023-12-07T00:54:34;101226.25;;;2.77;100.00
50550;BME280;36505;52.512;13.460;2023-12-07T00:56:59;101219.63;;;2.80;100.00
50550;BME280;36505;52.512;13.460;2023-12-07T00:59:25;101235.66;;;2.82;100.00
50550;BME280;36505;52.512;13.460;2023-12-07T01:01:50;101230.25;;;2.82;100.00
50550;BME280;36505;52.512;13.460;2023-12-07T01:04:16;101231.28;;;2.81;100.00
50550;BME280;36505;52.512;13.460;2023-12-07T01:06:41;101227.72;;;2.80;100.00
50550;BME280;36505;52.512;13.460;2023-12-07T01:09:08;101235.84;;;2.80;100.00
50550;BME280;36505;52.512;13.460;2023-12-07T01:11:38;101240.44;;;2.80;100.00
50550;BME280;36505;52.512;13.460;2023-12-07T01:14:04;101247.72;;;2.79;99.93
50550;BME280;36505;52.512;13.460;2023-12-07T01:16:30;101247.88;;;2.77;100.00
50550;BME280;36505;52.512;13.460;2023-12-07T01:18:55;101248.72;;;2.78;100.00
50550;BME280;36505;52.512;13.460;2023-12-07T01:21:21;101262.25;;;2.78;100.00
50550;BME280;36505;52.512;13.460;2023-12-07T01:23:46;101264.97;;;2.78;100.00
50550;BME280;36505;52.512;13.460;2023-12-07T01:26:11;101271.22;;;2.78;100.00
50550;BME280;36505;52.512;13.460;2023-12-07T01:28:37;101265.81;;;2.78;100.00
50550;BME280;36505;52.512;13.460;2023-12-07T01:31:02;101272.91;;;2.80;100.00
50550;BME280;36505;52.512;13.460;2023-12-07T01:33:27;101269.34;;;2.79;100.00
50550;BME280;36505;52.512;13.460;2023-12-07T01:35:53;101272.06;;;2.79;100.00
50550;BME280;36505;52.512;13.460;2023-12-07T01:38:19;101271.00;;;2.80;99.86
50550;BME280;36505;52.512;13.460;2023-12-07T01:40:44;101281.81;;;2.80;100.00
50550;BME280;36505;52.512;13.460;2023-12-07T01:43:10;101280.81;;;2.81;100.00
50550;BME280;36505;52.512;13.460;2023-12-07T01:45:35;101270.84;;;2.82;100.00
50550;BME280;36505;52.512;13.460;2023-12-07T01:48:01;101279.97;;;2.81;100.00
50550;BME280;36505;52.512;13.460;2023-12-07T01:50:26;101288.91;;;2.81;100.00
50550;BME280;36505;52.512;13.460;2023-12-07T01:53:01;101289.94;;;2.80;100.00
50550;BME280;36505;52.512;13.460;2023-12-07T01:55:27;101290.78;;;2.81;100.00
50550;BME280;36505;52.512;13.460;2023-12-07T01:57:54;101293.47;;;2.81;100.00
50550;BME280;36505;52.512;13.460;2023-12-07T02:00:20;101293.47;;;2.81;100.00
50550;BME280;36505;52.512;13.460;2023-12-07T02:02:46;101284.34;;;2.82;100.00
50550;BME280;36505;52.512;13.460;2023-12-07T02:05:13;101292.47;;;2.82;100.00
50550;BME280;36505;52.512;13.460;2023-12-07T02:07:43;101297.88;;;2.82;100.00
50550;BME280;36505;52.512;13.460;2023-12-07T02:10:11;101285.38;;;2.81;100.00
50550;BME280;36505;52.512;13.460;2023-12-07T02:12:36;101294.16;;;2.83;100.00
50550;BME280;36505;52.512;13.460;2023-12-07T02:15:02;101302.28;;;2.83;100.00
50550;BME280;36505;52.512;13.460;2023-12-07T02:20:12;101294.16;;;2.83;100.00
50550;BME280;36505;52.512;13.460;2023-12-07T02:22:52;101293.31;;;2.82;100.00
50550;BME280;36505;52.512;13.460;2023-12-07T02:25:24;101288.75;;;2.83;100.00
50550;BME280;36505;52.512;13.460;2023-12-07T02:27:51;101290.44;;;2.84;100.00
50550;BME280;36505;52.512;13.460;2023-12-07T02:30:16;101290.44;;;2.84;100.00
50550;BME280;36505;52.512;13.460;2023-12-07T02:32:43;101274.56;;;2.81;100.00
50550;BME280;36505;52.512;13.460;2023-12-07T02:35:11;101284.19;;;2.83;100.00
50550;BME280;36505;52.512;13.460;2023-12-07T02:40:07;101296.69;;;2.84;100.00
50550;BME280;36505;52.512;13.460;2023-12-07T02:42:39;101304.81;;;2.84;100.00
50550;BME280;36505;52.512;13.460;2023-12-07T02:45:09;101303.28;;;2.82;100.00
50550;BME280;36505;52.512;13.460;2023-12-07T02:47:35;101303.13;;;2.83;100.00
50550;BME280;36505;52.512;13.460;2023-12-07T02:50:01;101310.38;;;2.83;100.00
50550;BME280;36505;52.512;13.460;2023-12-07T02:52:27;101312.06;;;2.84;100.00
50550;BME280;36505;52.512;13.460;2023-12-07T02:54:52;101315.97;;;2.81;100.00
50550;BME280;36505;52.512;13.460;2023-12-07T02:57:17;101317.47;;;2.84;100.00
50550;BME280;36505;52.512;13.460;2023-12-07T02:59:43;101318.31;;;2.84;100.00
50550;BME280;36505;52.512;13.460;2023-12-07T03:02:08;101316.47;;;2.85;100.00
50550;BME280;36505;52.512;13.460;2023-12-07T03:04:33;101321.03;;;2.84;100.00
50550;BME280;36505;52.512;13.460;2023-12-07T03:06:59;101323.91;;;2.83;100.00
50550;BME280;36505;52.512;13.460;2023-12-07T03:09:24;101326.44;;;2.84;100.00
50550;BME280;36505;52.512;13.460;2023-12-07T03:11:50;101323.72;;;2.84;100.00
50550;BME280;36505;52.512;13.460;2023-12-07T03:14:16;101321.03;;;2.84;100.00
50550;BME280;36505;52.512;13.460;2023-12-07T03:16:41;101321.88;;;2.85;100.00
50550;BME280;36505;52.512;13.460;2023-12-07T03:19:07;101328.13;;;2.85;100.00
50550;BME280;36505;52.512;13.460;2023-12-07T03:21:32;101332.50;;;2.86;100.00
50550;BME280;36505;52.512;13.460;2023-12-07T03:23:57;101332.69;;;2.85;100.00
50550;BME280;36505;52.512;13.460;2023-12-07T03:26:23;101332.69;;;2.85;100.00
50550;BME280;36505;52.512;13.460;2023-12-07T03:28:48;101330.84;;;2.85;100.00
50550;BME280;36505;52.512;13.460;2023-12-07T03:31:14;101339.78;;;2.86;100.00
50550;BME280;36505;52.512;13.460;2023-12-07T03:33:41;101338.75;;;2.87;100.00
50550;BME280;36505;52.512;13.460;2023-12-07T03:36:10;101339.78;;;2.86;100.00
50550;BME280;36505;52.512;13.460;2023-12-07T03:38:36;101332.50;;;2.86;100.00
50550;BME280;36505;52.512;13.460;2023-12-07T03:41:01;101339.78;;;2.86;100.00
50550;BME280;36505;52.512;13.460;2023-12-07T03:43:27;101343.34;;;2.86;100.00
50550;BME280;36505;52.512;13.460;2023-12-07T03:45:52;101346.84;;;2.87;100.00
50550;BME280;36505;52.512;13.460;2023-12-07T03:48:17;101348.75;;;2.86;100.00
50550;BME280;36505;52.512;13.460;2023-12-07T03:50:43;101361.22;;;2.87;100.00
50550;BME280;36505;52.512;13.460;2023-12-07T03:53:08;101356.66;;;2.88;100.00
50550;BME280;36505;52.512;13.460;2023-12-07T03:55:35;101356.00;;;2.86;100.00
50550;BME280;36505;52.512;13.460;2023-12-07T03:58:02;101359.19;;;2.89;100.00
50550;BME280;36505;52.512;13.460;2023-12-07T04:00:27;101350.41;;;2.87;100.00
50550;BME280;36505;52.512;13.460;2023-12-07T04:02:53;101352.94;;;2.89;99.98
50550;BME280;36505;52.512;13.460;2023-12-07T04:05:18;101347.53;;;2.89;100.00
50550;BME280;36505;52.512;13.460;2023-12-07T04:07:43;101342.97;;;2.89;100.00
50550;BME280;36505;52.512;13.460;2023-12-07T04:10:09;101343.81;;;2.90;100.00
50550;BME280;36505;52.512;13.460;2023-12-07T04:12:35;101349.22;;;2.90;100.00
50550;BME280;36505;52.512;13.460;2023-12-07T04:15:00;101350.22;;;2.89;100.00
50550;BME280;36505;52.512;13.460;2023-12-07T04:17:25;101354.63;;;2.90;100.00
50550;BME280;36505;52.512;13.460;2023-12-07T04:19:51;101351.91;;;2.90;100.00
50550;BME280;36505;52.512;13.460;2023-12-07T04:22:16;101357.34;;;2.90;100.00
50550;BME280;36505;52.512;13.460;2023-12-07T04:24:41;101354.44;;;2.91;100.00
50550;BME280;36505;52.512;13.460;2023-12-07T04:27:07;101358.00;;;2.92;99.96
50550;BME280;36505;52.512;13.460;2023-12-07T04:29:32;101362.41;;;2.93;100.00
50550;BME280;36505;52.512;13.460;2023-12-07T04:31:58;101360.53;;;2.93;100.00
50550;BME280;36505;52.512;13.460;2023-12-07T04:34:23;101360.53;;;2.93;100.00
50550;BME280;36505;52.512;13.460;2023-12-07T04:36:49;101370.50;;;2.93;99.95
50550;BME280;36505;52.512;13.460;2023-12-07T04:39:14;101366.13;;;2.92;99.85
50550;BME280;36505;52.512;13.460;2023-12-07T04:41:40;101379.47;;;2.93;100.00
50550;BME280;36505;52.512;13.460;2023-12-07T04:44:05;101382.19;;;2.93;100.00
50550;BME280;36505;52.512;13.460;2023-12-07T04:46:30;101385.69;;;2.94;100.00
50550;BME280;36505;52.512;13.460;2023-12-07T04:48:56;101389.25;;;2.94;100.00
50550;BME280;36505;52.512;13.460;2023-12-07T04:51:21;101394.66;;;2.94;100.00
50550;BME280;36505;52.512;13.460;2023-12-07T04:53:47;101395.50;;;2.95;100.00
50550;BME280;36505;52.512;13.460;2023-12-07T04:56:12;101397.19;;;2.96;100.00
50550;BME280;36505;52.512;13.460;2023-12-07T04:58:38;101402.59;;;2.96;100.00
50550;BME280;36505;52.512;13.460;2023-12-07T05:01:04;101400.91;;;2.95;100.00
50550;BME280;36505;52.512;13.460;2023-12-07T05:03:29;101397.19;;;2.96;100.00
50550;BME280;36505;52.512;13.460;2023-12-07T05:05:55;101388.78;;;2.91;100.00
50550;BME280;36505;52.512;13.460;2023-12-07T05:08:20;101395.50;;;2.95;99.96
50550;BME280;36505;52.512;13.460;2023-12-07T05:10:46;101388.78;;;2.91;100.00
50550;BME280;36505;52.512;13.460;2023-12-07T05:13:11;101395.50;;;2.95;100.00
50550;BME280;36505;52.512;13.460;2023-12-07T05:15:37;101400.06;;;2.94;100.00
50550;BME280;36505;52.512;13.460;2023-12-07T05:18:03;101402.78;;;2.94;100.00
50550;BME280;36505;52.512;13.460;2023-12-07T05:20:28;101400.91;;;2.95;100.00
50550;BME280;36505;52.512;13.460;2023-12-07T05:22:54;101393.81;;;2.94;99.67
50550;BME280;36505;52.512;13.460;2023-12-07T05:25:19;101397.34;;;2.94;99.97
50550;BME280;36505;52.512;13.460;2023-12-07T05:27:45;101399.22;;;2.94;99.68
50550;BME280;36505;52.512;13.460;2023-12-07T05:30:11;101394.84;;;2.93;99.89
50550;BME280;36505;52.512;13.460;2023-12-07T05:32:36;101409.22;;;2.93;100.00
50550;BME280;36505;52.512;13.460;2023-12-07T05:35:02;101407.53;;;2.92;100.00
50550;BME280;36505;52.512;13.460;2023-12-07T05:37:27;101405.47;;;2.94;99.76
50550;BME280;36505;52.512;13.460;2023-12-07T05:39:53;101402.97;;;2.93;100.00
50550;BME280;36505;52.512;13.460;2023-12-07T05:42:18;101401.94;;;2.94;100.00
50550;BME280;36505;52.512;13.460;2023-12-07T05:44:44;101398.41;;;2.93;100.00
50550;BME280;36505;52.512;13.460;2023-12-07T05:47:09;101402.78;;;2.94;100.00
50550;BME280;36505;52.512;13.460;2023-12-07T05:49:35;101400.25;;;2.93;100.00
50550;BME280;36505;52.512;13.460;2023-12-07T05:52:00;101399.22;;;2.94;100.00
50550;BME280;36505;52.512;13.460;2023-12-07T05:54:26;101401.13;;;2.93;100.00
50550;BME280;36505;52.512;13.460;2023-12-07T05:56:51;101400.25;;;2.93;100.00
50550;BME280;36505;52.512;13.460;2023-12-07T05:59:16;101394.19;;;2.91;99.51
50550;BME280;36505;52.512;13.460;2023-12-07T06:01:42;101400.44;;;2.91;99.56
50550;BME280;36505;52.512;13.460;2023-12-07T06:04:08;101404.00;;;2.92;99.83
50550;BME280;36505;52.512;13.460;2023-12-07T06:06:34;101405.00;;;2.91;100.00
50550;BME280;36505;52.512;13.460;2023-12-07T06:09:00;101412.09;;;2.92;100.00
50550;BME280;36505;52.512;13.460;2023-12-07T06:11:25;101420.22;;;2.92;99.77
50550;BME280;36505;52.512;13.460;2023-12-07T06:13:51;101425.47;;;2.93;100.00
50550;BME280;36505;52.512;13.460;2023-12-07T06:16:16;101428.97;;;2.94;99.97
50550;BME280;36505;52.512;13.460;2023-12-07T06:18:44;101432.53;;;2.94;99.97
50550;BME280;36505;52.512;13.460;2023-12-07T06:21:09;101428.34;;;2.92;100.00
50550;BME280;36505;52.512;13.460;2023-12-07T06:23:35;101431.69;;;2.94;100.00
50550;BME280;36505;52.512;13.460;2023-12-07T06:26:01;101432.53;;;2.94;100.00
50550;BME280;36505;52.512;13.460;2023-12-07T06:28:27;101430.03;;;2.93;100.00
50550;BME280;36505;52.512;13.460;2023-12-07T06:30:53;101434.22;;;2.95;100.00
50550;BME280;36505;52.512;13.460;2023-12-07T06:33:18;101436.06;;;2.95;100.00
50550;BME280;36505;52.512;13.460;2023-12-07T06:35:44;101443.00;;;2.97;99.83
50550;BME280;36505;52.512;13.460;2023-12-07T06:38:11;101455.00;;;2.95;99.95
50550;BME280;36505;52.512;13.460;2023-12-07T06:40:37;101454.66;;;2.98;100.00
50550;BME280;36505;52.512;13.460;2023-12-07T06:43:02;101457.38;;;2.98;100.00
50550;BME280;36505;52.512;13.460;2023-12-07T06:45:27;101460.09;;;2.98;99.81
50550;BME280;36505;52.512;13.460;2023-12-07T06:47:53;101462.78;;;2.98;99.46
50550;BME280;36505;52.512;13.460;2023-12-07T06:50:18;101457.38;;;2.98;99.88
50550;BME280;36505;52.512;13.460;2023-12-07T06:52:43;101461.78;;;2.99;100.00
50550;BME280;36505;52.512;13.460;2023-12-07T06:55:10;101472.59;;;2.99;99.74
50550;BME280;36505;52.512;13.460;2023-12-07T06:57:36;101467.19;;;2.99;99.84
50550;BME280;36505;52.512;13.460;2023-12-07T07:00:01;101467.19;;;2.99;99.57
50550;BME280;36505;52.512;13.460;2023-12-07T07:02:31;101467.19;;;2.99;99.63
50550;BME280;36505;52.512;13.460;2023-12-07T07:04:56;101466.16;;;3.00;99.66
50550;BME280;36505;52.512;13.460;2023-12-07T07:07:21;101468.66;;;3.01;99.95
50550;BME280;36505;52.512;13.460;2023-12-07T07:09:47;101470.53;;;3.01;99.92
50550;BME280;36505;52.512;13.460;2023-12-07T07:12:12;101464.28;;;3.00;99.93
50550;BME280;36505;52.512;13.460;2023-12-07T07:14:37;101466.81;;;3.02;99.91
50550;BME280;36505;52.512;13.460;2023-12-07T07:17:04;101473.91;;;3.03;100.00
50550;BME280;36505;52.512;13.460;2023-12-07T07:19:29;101477.63;;;3.02;99.81
50550;BME280;36505;52.512;13.460;2023-12-07T07:21:55;101478.47;;;3.02;100.00
50550;BME280;36505;52.512;13.460;2023-12-07T07:24:21;101480.16;;;3.03;99.70
50550;BME280;36505;52.512;13.460;2023-12-07T07:26:46;101466.81;;;3.02;100.00
50550;BME280;36505;52.512;13.460;2023-12-07T07:29:11;101466.63;;;3.03;100.00
50550;BME280;36505;52.512;13.460;2023-12-07T07:31:37;101480.16;;;3.03;99.87
50550;BME280;36505;52.512;13.460;2023-12-07T07:34:02;101478.31;;;3.04;100.00
50550;BME280;36505;52.512;13.460;2023-12-07T07:36:28;101479.31;;;3.03;100.00
50550;BME280;36505;52.512;13.460;2023-12-07T07:38:54;101477.28;;;3.05;99.85
50550;BME280;36505;52.512;13.460;2023-12-07T07:41:20;101483.56;;;3.05;100.00
50550;BME280;36505;52.512;13.460;2023-12-07T07:43:45;101476.28;;;3.06;100.00
50550;BME280;36505;52.512;13.460;2023-12-07T07:46:10;101474.41;;;3.06;100.00
50550;BME280;36505;52.512;13.460;2023-12-07T07:48:36;101482.53;;;3.06;99.98
50550;BME280;36505;52.512;13.460;2023-12-07T07:51:02;101478.78;;;3.07;99.88
50550;BME280;36505;52.512;13.460;2023-12-07T07:53:28;101479.81;;;3.06;99.90
50550;BME280;36505;52.512;13.460;2023-12-07T07:55:53;101474.59;;;3.05;100.00
50550;BME280;36505;52.512;13.460;2023-12-07T07:58:19;101476.91;;;3.08;99.98
50550;BME280;36505;52.512;13.460;2023-12-07T08:00:45;101482.84;;;3.11;99.89
50550;BME280;36505;52.512;13.460;2023-12-07T08:03:12;101484.53;;;3.12;99.96
50550;BME280;36505;52.512;13.460;2023-12-07T08:05:37;101482.66;;;3.13;100.00
50550;BME280;36505;52.512;13.460;2023-12-07T08:08:03;101486.22;;;3.13;99.87
50550;BME280;36505;52.512;13.460;2023-12-07T08:10:28;101480.81;;;3.13;100.00
50550;BME280;36505;52.512;13.460;2023-12-07T08:12:53;101494.13;;;3.15;100.00
50550;BME280;36505;52.512;13.460;2023-12-07T08:15:19;101483.31;;;3.15;100.00
50550;BME280;36505;52.512;13.460;2023-12-07T08:17:45;101486.69;;;3.17;100.00
50550;BME280;36505;52.512;13.460;2023-12-07T08:20:11;101492.78;;;3.19;100.00
50550;BME280;36505;52.512;13.460;2023-12-07T08:22:38;101489.72;;;3.14;100.00
50550;BME280;36505;52.512;13.460;2023-12-07T08:25:04;101492.59;;;3.21;99.95
50550;BME280;36505;52.512;13.460;2023-12-07T08:27:33;101503.22;;;3.22;99.96
50550;BME280;36505;52.512;13.460;2023-12-07T08:30:00;101502.03;;;3.25;99.79
50550;BME280;36505;52.512;13.460;2023-12-07T08:32:25;101512.88;;;3.25;99.90
50550;BME280;36505;52.512;13.460;2023-12-07T08:35:11;101510.84;;;3.27;99.90
50550;BME280;36505;52.512;13.460;2023-12-07T08:37:37;101511.00;;;3.25;99.95
50550;BME280;36505;52.512;13.460;2023-12-07T08:40:04;101515.41;;;3.26;99.75
50550;BME280;36505;52.512;13.460;2023-12-07T08:42:30;101516.25;;;3.27;99.85
50550;BME280;36505;52.512;13.460;2023-12-07T08:44:57;101512.88;;;3.25;99.44
50550;BME280;36505;52.512;13.460;2023-12-07T08:47:22;101510.63;;;3.28;99.43
50550;BME280;36505;52.512;13.460;2023-12-07T08:49:47;101517.72;;;3.29;99.48
50550;BME280;36505;52.512;13.460;2023-12-07T08:52:13;101523.16;;;3.29;99.75
50550;BME280;36505;52.512;13.460;2023-12-07T08:54:38;101523.81;;;3.31;99.53
50550;BME280;36505;52.512;13.460;2023-12-07T08:57:04;101521.97;;;3.32;99.36
50550;BME280;36505;52.512;13.460;2023-12-07T08:59:29;101527.38;;;3.32;99.55
50550;BME280;36505;52.512;13.460;2023-12-07T09:01:55;101525.34;;;3.34;99.58
50550;BME280;36505;52.512;13.460;2023-12-07T09:04:21;101522.63;;;3.34;99.66
50550;BME280;36505;52.512;13.460;2023-12-07T09:06:47;101523.28;;;3.36;99.47
50550;BME280;36505;52.512;13.460;2023-12-07T09:09:12;101525.97;;;3.36;99.22
50550;BME280;36505;52.512;13.460;2023-12-07T09:11:37;101529.53;;;3.36;99.07
50550;BME280;36505;52.512;13.460;2023-12-07T09:14:03;101529.38;;;3.38;99.07
50550;BME280;36505;52.512;13.460;2023-12-07T09:16:29;101523.94;;;3.38;99.37
50550;BME280;36505;52.512;13.460;2023-12-07T09:18:55;101528.19;;;3.40;99.72
50550;BME280;36505;52.512;13.460;2023-12-07T09:21:21;101528.81;;;3.42;99.81
50550;BME280;36505;52.512;13.460;2023-12-07T09:23:46;101515.84;;;3.38;99.89
50550;BME280;36505;52.512;13.460;2023-12-07T09:26:13;101527.63;;;3.45;99.73
50550;BME280;36505;52.512;13.460;2023-12-07T09:28:38;101529.16;;;3.47;99.67
50550;BME280;36505;52.512;13.460;2023-12-07T09:31:05;101533.50;;;3.48;100.00
50550;BME280;36505;52.512;13.460;2023-12-07T09:33:31;101531.47;;;3.50;99.84
50550;BME280;36505;52.512;13.460;2023-12-07T09:35:56;101533.16;;;3.51;99.68
50550;BME280;36505;52.512;13.460;2023-12-07T09:38:22;101533.84;;;3.53;100.00
50550;BME280;36505;52.512;13.460;2023-12-07T09:40:51;101533.63;;;3.55;99.63
50550;BME280;36505;52.512;13.460;2023-12-07T09:43:17;101528.91;;;3.57;99.93
50550;BME280;36505;52.512;13.460;2023-12-07T09:45:44;101539.72;;;3.57;99.65
50550;BME280;36505;52.512;13.460;2023-12-07T09:48:09;101541.41;;;3.58;99.35
50550;BME280;36505;52.512;13.460;2023-12-07T09:50:35;101542.25;;;3.58;99.17
50550;BME280;36505;52.512;13.460;2023-12-07T09:53:01;101542.94;;;3.61;99.08
50550;BME280;36505;52.512;13.460;2023-12-07T09:55:26;101543.28;;;3.57;99.14
50550;BME280;36505;52.512;13.460;2023-12-07T09:57:52;101542.09;;;3.60;98.35
50550;BME280;36505;52.512;13.460;2023-12-07T10:00:19;101554.63;;;3.61;98.05
50550;BME280;36505;52.512;13.460;2023-12-07T10:02:46;101551.91;;;3.61;98.17
50550;BME280;36505;52.512;13.460;2023-12-07T10:05:13;101549.19;;;3.61;98.26
50550;BME280;36505;52.512;13.460;2023-12-07T10:07:45;101555.47;;;3.62;98.15
50550;BME280;36505;52.512;13.460;2023-12-07T10:10:13;101559.19;;;3.61;98.52
50550;BME280;36505;52.512;13.460;2023-12-07T10:12:54;101549.19;;;3.61;98.50
50550;BME280;36505;52.512;13.460;2023-12-07T10:15:21;101542.94;;;3.61;98.25
50550;BME280;36505;52.512;13.460;2023-12-07T10:20:18;101547.50;;;3.60;97.53
50550;BME280;36505;52.512;13.460;2023-12-07T10:22:47;101537.69;;;3.59;98.07
50550;BME280;36505;52.512;13.460;2023-12-07T10:25:13;101534.81;;;3.61;98.48
50550;BME280;36505;52.512;13.460;2023-12-07T10:27:41;101538.38;;;3.61;98.49
50550;BME280;36505;52.512;13.460;2023-12-07T10:30:08;101524.44;;;3.64;98.36
50550;BME280;36505;52.512;13.460;2023-12-07T10:32:38;101534.44;;;3.64;98.20
50550;BME280;36505;52.512;13.460;2023-12-07T10:35:06;101534.25;;;3.65;98.19
50550;BME280;36505;52.512;13.460;2023-12-07T10:37:32;101545.94;;;3.66;98.68
50550;BME280;36505;52.512;13.460;2023-12-07T10:39:58;101539.50;;;3.67;98.93
50550;BME280;36505;52.512;13.460;2023-12-07T10:42:24;101540.16;;;3.69;98.42
50550;BME280;36505;52.512;13.460;2023-12-07T10:44:53;101537.44;;;3.69;98.59
50550;BME280;36505;52.512;13.460;2023-12-07T10:47:21;101539.81;;;3.72;98.58
50550;BME280;36505;52.512;13.460;2023-12-07T10:49:52;101527.94;;;3.73;99.22
50550;BME280;36505;52.512;13.460;2023-12-07T10:52:23;101535.91;;;3.74;98.97
50550;BME280;36505;52.512;13.460;2023-12-07T10:55:07;101532.19;;;3.75;99.14
50550;BME280;36505;52.512;13.460;2023-12-07T10:57:36;101534.03;;;3.75;98.97
50550;BME280;36505;52.512;13.460;2023-12-07T11:00:03;101535.69;;;3.76;98.95
50550;BME280;36505;52.512;13.460;2023-12-07T11:02:29;101533.66;;;3.78;98.53
50550;BME280;36505;52.512;13.460;2023-12-07T11:04:57;101533.66;;;3.78;99.32
50550;BME280;36505;52.512;13.460;2023-12-07T11:07:24;101530.78;;;3.79;98.85
50550;BME280;36505;52.512;13.460;2023-12-07T11:10:00;101529.59;;;3.82;99.07
50550;BME280;36505;52.512;13.460;2023-12-07T11:12:38;101529.38;;;3.83;99.70
50550;BME280;36505;52.512;13.460;2023-12-07T11:15:10;101521.06;;;3.85;98.68
50550;BME280;36505;52.512;13.460;2023-12-07T11:17:55;101521.75;;;3.87;99.54
50550;BME280;36505;52.512;13.460;2023-12-07T11:20:42;101522.59;;;3.87;99.97
50550;BME280;36505;52.512;13.460;2023-12-07T11:23:10;101522.59;;;3.87;100.00
50550;BME280;36505;52.512;13.460;2023-12-07T11:25:39;101524.91;;;3.90;99.76
50550;BME280;36505;52.512;13.460;2023-12-07T11:28:05;101507.63;;;3.91;99.58
50550;BME280;36505;52.512;13.460;2023-12-07T11:30:34;101509.34;;;3.92;99.23
50550;BME280;36505;52.512;13.460;2023-12-07T11:33:00;101507.63;;;3.91;99.02
50550;BME280;36505;52.512;13.460;2023-12-07T11:35:28;101511.88;;;3.94;99.11
50550;BME280;36505;52.512;13.460;2023-12-07T11:38:22;101514.41;;;3.95;98.98
50550;BME280;36505;52.512;13.460;2023-12-07T11:40:47;101514.41;;;3.95;98.84
50550;BME280;36505;52.512;13.460;2023-12-07T11:43:42;101506.28;;;3.95;98.67
50550;BME280;36505;52.512;13.460;2023-12-07T11:46:10;101506.28;;;3.95;98.77
50550;BME280;36505;52.512;13.460;2023-12-07T11:48:36;101504.38;;;3.96;98.66
50550;BME280;36505;52.512;13.460;2023-12-07T11:51:03;101507.09;;;3.96;98.84
50550;BME280;36505;52.512;13.460;2023-12-07T11:53:33;101514.19;;;3.97;99.02
50550;BME280;36505;52.512;13.460;2023-12-07T11:56:01;101513.34;;;3.96;98.23
50550;BME280;36505;52.512;13.460;2023-12-07T11:58:28;101508.13;;;3.95;98.27
50550;BME280;36505;52.512;13.460;2023-12-07T12:00:55;101510.47;;;3.98;98.51
50550;BME280;36505;52.512;13.460;2023-12-07T12:03:22;101510.63;;;3.96;98.27
50550;BME280;36505;52.512;13.460;2023-12-07T12:05:48;101508.78;;;3.97;98.18
50550;BME280;36505;52.512;13.460;2023-12-07T12:08:13;101511.47;;;3.97;97.94
50550;BME280;36505;52.512;13.460;2023-12-07T12:10:40;101519.44;;;3.98;98.08
50550;BME280;36505;52.512;13.460;2023-12-07T12:13:06;101513.34;;;3.96;98.23
50550;BME280;36505;52.512;13.460;2023-12-07T12:15:31;101514.19;;;3.97;98.53
50550;BME280;36505;52.512;13.460;2023-12-07T12:17:57;101508.78;;;3.97;97.88
50550;BME280;36505;52.512;13.460;2023-12-07T12:20:24;101505.88;;;3.98;97.81
50550;BME280;36505;52.512;13.460;2023-12-07T12:22:50;101511.47;;;3.97;98.25
50550;BME280;36505;52.512;13.460;2023-12-07T12:25:26;101507.75;;;3.98;98.65
50550;BME280;36505;52.512;13.460;2023-12-07T12:27:54;101503.19;;;3.98;98.36
50550;BME280;36505;52.512;13.460;2023-12-07T12:30:21;101513.16;;;3.98;98.11
50550;BME280;36505;52.512;13.460;2023-12-07T12:32:50;101508.59;;;3.98;98.38
50550;BME280;36505;52.512;13.460;2023-12-07T12:35:16;101507.75;;;3.98;98.08
50550;BME280;36505;52.512;13.460;2023-12-07T12:37:43;101514.88;;;3.99;98.37
50550;BME280;36505;52.512;13.460;2023-12-07T12:40:10;101513.00;;;4.00;98.47
50550;BME280;36505;52.512;13.460;2023-12-07T12:42:36;101516.72;;;3.98;98.18
50550;BME280;36505;52.512;13.460;2023-12-07T12:45:03;101515.72;;;4.00;98.09
50550;BME280;36505;52.512;13.460;2023-12-07T12:47:29;101514.00;;;3.98;97.86
50550;BME280;36505;52.512;13.460;2023-12-07T12:49:55;101521.31;;;3.98;98.12